Map

Track Data

SID SEASON NUMBER BASIN SUBBASIN NAME ISO_TIME NATURE LAT LON WMO_WIND WMO_PRES WMO_AGENCY TRACK_TYPE DIST2LAND LANDFALL IFLAG USA_AGENCY USA_ATCF_ID USA_LAT USA_LON USA_RECORD USA_STATUS USA_WIND USA_PRES USA_SSHS USA_R34_NE USA_R34_SE USA_R34_SW USA_R34_NW USA_R50_NE USA_R50_SE USA_R50_SW USA_R50_NW USA_R64_NE USA_R64_SE USA_R64_SW USA_R64_NW USA_POCI USA_ROCI USA_RMW USA_EYE TOKYO_LAT TOKYO_LON TOKYO_GRADE TOKYO_WIND TOKYO_PRES TOKYO_R50_DIR TOKYO_R50_LONG TOKYO_R50_SHORT TOKYO_R30_DIR TOKYO_R30_LONG TOKYO_R30_SHORT TOKYO_LAND CMA_LAT CMA_LON CMA_CAT CMA_WIND CMA_PRES HKO_LAT HKO_LON HKO_CAT HKO_WIND HKO_PRES NEWDELHI_LAT NEWDELHI_LON NEWDELHI_GRADE NEWDELHI_WIND NEWDELHI_PRES NEWDELHI_CI NEWDELHI_DP NEWDELHI_POCI REUNION_LAT REUNION_LON REUNION_TYPE REUNION_WIND REUNION_PRES REUNION_TNUM REUNION_CI REUNION_RMW REUNION_R34_NE REUNION_R34_SE REUNION_R34_SW REUNION_R34_NW REUNION_R50_NE REUNION_R50_SE REUNION_R50_SW REUNION_R50_NW REUNION_R64_NE REUNION_R64_SE REUNION_R64_SW REUNION_R64_NW BOM_LAT BOM_LON BOM_TYPE BOM_WIND BOM_PRES BOM_TNUM BOM_CI BOM_RMW BOM_R34_NE BOM_R34_SE BOM_R34_SW BOM_R34_NW BOM_R50_NE BOM_R50_SE BOM_R50_SW BOM_R50_NW BOM_R64_NE BOM_R64_SE BOM_R64_SW BOM_R64_NW BOM_ROCI BOM_POCI BOM_EYE BOM_POS_METHOD BOM_PRES_METHOD NADI_LAT NADI_LON NADI_CAT NADI_WIND NADI_PRES WELLINGTON_LAT WELLINGTON_LON WELLINGTON_WIND WELLINGTON_PRES DS824_LAT DS824_LON DS824_STAGE DS824_WIND DS824_PRES TD9636_LAT TD9636_LON TD9636_STAGE TD9636_WIND TD9636_PRES TD9635_LAT TD9635_LON TD9635_WIND TD9635_PRES TD9635_ROCI NEUMANN_LAT NEUMANN_LON NEUMANN_CLASS NEUMANN_WIND NEUMANN_PRES MLC_LAT MLC_LON MLC_CLASS MLC_WIND MLC_PRES USA_GUST BOM_GUST BOM_GUST_PER REUNION_GUST REUNION_GUST_PER USA_SEAHGT USA_SEARAD_NE USA_SEARAD_SE USA_SEARAD_SW USA_SEARAD_NW STORM_SPEED STORM_DIR
1940240N26295 1940 54 NA NA NOT_NAMED 1940-08-26 12:00:00 TS 26.2000 -65.3000 25 hurdat_atl main 872 872 O_____________ hurdat_atl AL041940 26.2000 -65.3000 TD 25 -1 3 323
1940240N26295 1940 54 NA NA NOT_NAMED 1940-08-26 15:00:00 TS 26.3000 -65.3875 main 878 878 P_____________ AL041940 26.3000 -65.3875 TD 25 -1 3 318
1940240N26295 1940 54 NA NA NOT_NAMED 1940-08-26 18:00:00 TS 26.4000 -65.5000 25 hurdat_atl main 883 879 O_____________ hurdat_atl AL041940 26.4000 -65.5000 TD 25 -1 3 310
1940240N26295 1940 54 NA NA NOT_NAMED 1940-08-26 21:00:00 TS 26.5000 -65.6500 main 889 885 P_____________ AL041940 26.5000 -65.6500 TD 25 -1 3 307
1940240N26295 1940 54 NA NA NOT_NAMED 1940-08-27 00:00:00 TS 26.6000 -65.8000 25 hurdat_atl main 891 886 O_____________ hurdat_atl AL041940 26.6000 -65.8000 TD 25 -1 3 312
1940240N26295 1940 54 NA NA NOT_NAMED 1940-08-27 03:00:00 TS 26.7000 -65.9001 main 897 897 P_____________ AL041940 26.7000 -65.9001 TD 25 -1 3 318
1940240N26295 1940 54 NA NA NOT_NAMED 1940-08-27 06:00:00 TS 26.8000 -66.0000 25 hurdat_atl main 902 897 O_____________ hurdat_atl AL041940 26.8000 -66.0000 TD 25 -1 3 313
1940240N26295 1940 54 NA NA NOT_NAMED 1940-08-27 09:00:00 TS 26.9000 -66.1425 main 907 903 P_____________ AL041940 26.9000 -66.1425 TD 25 -1 3 307
1940240N26295 1940 54 NA NA NOT_NAMED 1940-08-27 12:00:00 TS 27.0000 -66.3000 25 hurdat_atl main 909 904 O_____________ hurdat_atl AL041940 27.0000 -66.3000 TD 25 -1 3 306
1940240N26295 1940 54 NA NA NOT_NAMED 1940-08-27 15:00:00 TS 27.1000 -66.4500 main 911 911 P_____________ AL041940 27.1000 -66.4500 TD 25 -1 3 307
1940240N26295 1940 54 NA NA NOT_NAMED 1940-08-27 18:00:00 TS 27.2000 -66.6000 25 hurdat_atl main 917 913 O_____________ hurdat_atl AL041940 27.2000 -66.6000 TD 25 -1 3 307
1940240N26295 1940 54 NA NA NOT_NAMED 1940-08-27 21:00:00 TS 27.3075 -66.7575 main 920 920 P_____________ AL041940 27.3075 -66.7575 TD 25 -1 3 307
1940240N26295 1940 54 NA NA NOT_NAMED 1940-08-28 00:00:00 TS 27.4000 -66.9000 25 hurdat_atl main 927 921 O_____________ hurdat_atl AL041940 27.4000 -66.9000 TD 25 -1 3 305
1940240N26295 1940 54 NA NA NOT_NAMED 1940-08-28 03:00:00 TS 27.4575 -67.0001 main 929 922 P_____________ AL041940 27.4575 -67.0001 TD 27 -1 2 300
1940240N26295 1940 54 NA NA NOT_NAMED 1940-08-28 06:00:00 TS 27.5000 -67.1000 30 hurdat_atl main 922 916 O_____________ hurdat_atl AL041940 27.5000 -67.1000 TD 30 -1 2 291
1940240N26295 1940 54 NA NA NOT_NAMED 1940-08-28 09:00:00 TS 27.5425 -67.2425 main 916 909 P_____________ AL041940 27.5425 -67.2425 TD 30 -1 3 291
1940240N26295 1940 54 NA NA NOT_NAMED 1940-08-28 12:00:00 TS 27.6000 -67.4000 30 hurdat_atl main 912 905 O_____________ hurdat_atl AL041940 27.6000 -67.4000 TD 30 -1 3 299
1940240N26295 1940 54 NA NA NOT_NAMED 1940-08-28 15:00:00 TS 27.6925 -67.5500 main 914 908 P_____________ AL041940 27.6925 -67.5500 TD 32 -1 3 307
1940240N26295 1940 54 NA NA NOT_NAMED 1940-08-28 18:00:00 TS 27.8000 -67.7000 35 hurdat_atl main 911 905 O_____________ hurdat_atl AL041940 27.8000 -67.7000 TS 35 0 3 309
1940240N26295 1940 54 NA NA NOT_NAMED 1940-08-28 21:00:00 TS 27.9000 -67.8425 main 914 908 P_____________ AL041940 27.9000 -67.8425 TS 37 0 3 307
1940240N26295 1940 54 NA NA NOT_NAMED 1940-08-29 00:00:00 TS 28.0000 -68.0000 40 hurdat_atl main 912 906 O_____________ hurdat_atl AL041940 28.0000 -68.0000 TS 40 0 4 303
1940240N26295 1940 54 NA NA NOT_NAMED 1940-08-29 03:00:00 TS 28.1000 -68.1925 main 910 905 P_____________ AL041940 28.1000 -68.1925 TS 42 0 4 299
1940240N26295 1940 54 NA NA NOT_NAMED 1940-08-29 06:00:00 TS 28.2000 -68.4000 45 hurdat_atl main 909 904 O_____________ hurdat_atl AL041940 28.2000 -68.4000 TS 45 0 4 300
1940240N26295 1940 54 NA NA NOT_NAMED 1940-08-29 09:00:00 TS 28.2999 -68.5926 main 908 904 P_____________ AL041940 28.2999 -68.5926 TS 47 0 4 300
1940240N26295 1940 54 NA NA NOT_NAMED 1940-08-29 12:00:00 TS 28.4000 -68.8000 50 hurdat_atl main 909 904 O_____________ hurdat_atl AL041940 28.4000 -68.8000 TS 50 0 4 296
1940240N26295 1940 54 NA NA NOT_NAMED 1940-08-29 15:00:00 TS 28.4925 -69.0426 main 909 900 P_____________ AL041940 28.4925 -69.0426 TS 52 0 5 294
1940240N26295 1940 54 NA NA NOT_NAMED 1940-08-29 18:00:00 TS 28.6000 -69.3000 55 hurdat_atl main 906 902 O_____________ hurdat_atl AL041940 28.6000 -69.3000 TS 55 0 5 298
1940240N26295 1940 54 NA NA NOT_NAMED 1940-08-29 21:00:00 TS 28.7274 -69.5427 main 908 904 P_____________ AL041940 28.7274 -69.5427 TS 57 0 5 304
1940240N26295 1940 54 NA NA NOT_NAMED 1940-08-30 00:00:00 TS 28.9000 -69.8000 60 hurdat_atl main 904 867 O_____________ hurdat_atl AL041940 28.9000 -69.8000 TS 60 0 6 310
1940240N26295 1940 54 NA NA NOT_NAMED 1940-08-30 03:00:00 TS 29.1199 -70.0852 main 867 823 P_____________ AL041940 29.1199 -70.0852 TS 62 0 7 314
1940240N26295 1940 54 NA NA NOT_NAMED 1940-08-30 06:00:00 TS 29.4000 -70.4000 65 hurdat_atl main 823 779 O_____________ hurdat_atl AL041940 29.4000 -70.4000 HU 65 1 8 318
1940240N26295 1940 54 NA NA NOT_NAMED 1940-08-30 09:00:00 TS 29.7348 -70.7277 main 779 720 P_____________ AL041940 29.7348 -70.7277 HU 70 1 9 319
1940240N26295 1940 54 NA NA NOT_NAMED 1940-08-30 12:00:00 TS 30.1000 -71.1000 75 hurdat_atl main 720 669 O_____________ hurdat_atl AL041940 30.1000 -71.1000 HU 75 1 10 315
1940240N26295 1940 54 NA NA NOT_NAMED 1940-08-30 15:00:00 TS 30.4501 -71.5426 main 661 604 P_____________ AL041940 30.4501 -71.5426 HU 77 1 10 312
1940240N26295 1940 54 NA NA NOT_NAMED 1940-08-30 18:00:00 TS 30.8000 -72.0000 80 hurdat_atl main 604 554 O_____________ hurdat_atl AL041940 30.8000 -72.0000 HU 80 1 10 313
1940240N26295 1940 54 NA NA NOT_NAMED 1940-08-30 21:00:00 TS 31.1650 -72.4300 main 545 495 P_____________ AL041940 31.1650 -72.4300 HU 80 1 10 316
1940240N26295 1940 54 NA NA NOT_NAMED 1940-08-31 00:00:00 TS 31.5000 -72.8000 80 hurdat_atl main 495 451 O_____________ hurdat_atl AL041940 31.5000 -72.8000 HU 80 1 8 318
1940240N26295 1940 54 NA NA NOT_NAMED 1940-08-31 03:00:00 TS 31.7723 -73.0804 main 451 422 P_____________ AL041940 31.7723 -73.0804 HU 80 1 7 320
1940240N26295 1940 54 NA NA NOT_NAMED 1940-08-31 06:00:00 TS 32.0000 -73.3000 80 hurdat_atl main 422 393 O_____________ hurdat_atl AL041940 32.0000 -73.3000 HU 80 1 6 318
1940240N26295 1940 54 NA NA NOT_NAMED 1940-08-31 09:00:00 TS 32.1925 -73.5227 main 393 364 P_____________ AL041940 32.1925 -73.5227 HU 82 1 5 320
1940240N26295 1940 54 NA NA NOT_NAMED 1940-08-31 12:00:00 TS 32.4000 -73.7000 85 hurdat_atl main 364 334 O_____________ hurdat_atl AL041940 32.4000 -73.7000 HU 85 2 5 334
1940240N26295 1940 54 NA NA NOT_NAMED 1940-08-31 15:00:00 TS 32.6774 -73.8077 main 334 305 P_____________ AL041940 32.6774 -73.8077 HU 85 2 6 344
1940240N26295 1940 54 NA NA NOT_NAMED 1940-08-31 18:00:00 TS 33.0000 -73.9000 85 hurdat_atl main 305 276 O_____________ hurdat_atl AL041940 33.0000 -73.9000 HU 85 2 7 342
1940240N26295 1940 54 NA NA NOT_NAMED 1940-08-31 21:00:00 TS 33.3350 -74.0573 main 269 234 P_____________ AL041940 33.3350 -74.0573 HU 87 2 7 340
1940240N26295 1940 54 NA NA NOT_NAMED 1940-09-01 00:00:00 TS 33.7000 -74.2000 90 hurdat_atl main 234 203 O_____________ hurdat_atl AL041940 33.7000 -74.2000 HU 90 2 8 343
1940240N26295 1940 54 NA NA NOT_NAMED 1940-09-01 03:00:00 TS 34.0998 -74.3318 main 203 176 P_____________ AL041940 34.0998 -74.3318 HU 92 2 8 354
1940240N26295 1940 54 NA NA NOT_NAMED 1940-09-01 06:00:00 TS 34.5000 -74.3000 95 hurdat_atl main 176 168 O_____________ hurdat_atl AL041940 34.5000 -74.3000 HU 95 2 8 22
1940240N26295 1940 54 NA NA NOT_NAMED 1940-09-01 09:00:00 TS 34.8126 -73.9820 main 175 175 P_____________ AL041940 34.8126 -73.9820 HU 95 2 10 43
1940240N26295 1940 54 NA NA NOT_NAMED 1940-09-01 12:00:00 TS 35.2000 -73.5000 95 hurdat_atl main 192 192 O_____________ hurdat_atl AL041940 35.2000 -73.5000 HU 95 2 12 39
1940240N26295 1940 54 NA NA NOT_NAMED 1940-09-01 15:00:00 TS 35.7823 -73.0293 main 224 224 P_____________ AL041940 35.7823 -73.0293 HU 92 2 15 32
1940240N26295 1940 54 NA NA NOT_NAMED 1940-09-01 18:00:00 TS 36.5000 -72.5000 90 hurdat_atl main 279 279 O_____________ hurdat_atl AL041940 36.5000 -72.5000 HU 90 2 17 31
1940240N26295 1940 54 NA NA NOT_NAMED 1940-09-01 21:00:00 TS 37.2698 -71.9217 main 301 297 P_____________ AL041940 37.2698 -71.9217 HU 90 2 19 31
1940240N26295 1940 54 NA NA NOT_NAMED 1940-09-02 00:00:00 TS 38.1000 -71.3000 90 961 hurdat_atl main 302 266 O_____________ hurdat_atl AL041940 38.1000 -71.3000 HU 90 961 2 19 31
1940240N26295 1940 54 NA NA NOT_NAMED 1940-09-02 03:00:00 TS 38.9270 -70.6703 main 266 206 P_____________ AL041940 38.9270 -70.6703 HU 85 2 20 31
1940240N26295 1940 54 NA NA NOT_NAMED 1940-09-02 06:00:00 TS 39.8000 -70.0000 80 hurdat_atl main 198 125 O_____________ hurdat_atl AL041940 39.8000 -70.0000 HU 80 1 21 30
1940240N26295 1940 54 NA NA NOT_NAMED 1940-09-02 09:00:00 TS 40.7420 -69.2785 main 125 101 P_____________ AL041940 40.7420 -69.2785 HU 75 1 22 31
1940240N26295 1940 54 NA NA NOT_NAMED 1940-09-02 12:00:00 TS 41.7000 -68.5000 70 hurdat_atl main 124 123 O_____________ hurdat_atl AL041940 41.7000 -68.5000 HU 70 1 22 34
1940240N26295 1940 54 NA NA NOT_NAMED 1940-09-02 15:00:00 TS 42.6080 -67.6199 main 172 58 P_____________ AL041940 42.6080 -67.6199 HU 65 1 22 35
1940240N26295 1940 54 NA NA NOT_NAMED 1940-09-02 18:00:00 TS 43.5000 -66.8000 60 hurdat_atl main 58 7 O_____________ hurdat_atl AL041940 43.5000 -66.8000 TS 60 0 21 30
1940240N26295 1940 54 NA NA NOT_NAMED 1940-09-02 21:00:00 TS 44.3993 -66.1728 main 0 0 P_____________ AL041940 44.3993 -66.1728 TS 57 0 20 24
1940240N26295 1940 54 NA NA NOT_NAMED 1940-09-03 00:00:00 ET 45.3000 -65.7000 55 hurdat_atl main 0 0 O_____________ hurdat_atl AL041940 45.3000 -65.7000 EX 55 -4 19 19
1940240N26295 1940 54 NA NA NOT_NAMED 1940-09-03 03:00:00 ET 46.1996 -65.3103 main 0 0 P_____________ AL041940 46.1996 -65.3103 EX 50 -4 19 15
1940240N26295 1940 54 NA NA NOT_NAMED 1940-09-03 06:00:00 ET 47.1000 -65.0000 45 hurdat_atl main 11 0 O_____________ hurdat_atl AL041940 47.1000 -65.0000 EX 45 -4 18 12
1940240N26295 1940 54 NA NA NOT_NAMED 1940-09-03 09:00:00 ET 47.9919 -64.7334 main 23 0 P_____________ AL041940 47.9919 -64.7334 EX 40 -4 18 13
1940240N26295 1940 54 NA NA NOT_NAMED 1940-09-03 12:00:00 ET 48.9000 -64.4000 35 hurdat_atl main 0 0 O_____________ hurdat_atl AL041940 48.9000 -64.4000 EX 35 -4 19 17
1940240N26295 1940 54 NA NA NOT_NAMED 1940-09-03 15:00:00 ET 49.8412 -63.8700 main 0 0 P_____________ AL041940 49.8412 -63.8700 EX 30 -4 20 22
1940240N26295 1940 54 NA NA NOT_NAMED 1940-09-03 18:00:00 ET 50.8000 -63.2000 25 hurdat_atl main 0 O_____________ hurdat_atl AL041940 50.8000 -63.2000 EX 25 -4 21 24

About IBTrACS Database

This database is a web-friendly format of International Best Track Archive for Climate Stewardship (IBTrACS), a global best track data archive curated by NOAA dating back to 1842.

Updated: 2021-12-08